QFA607 YMML-YSSY
Flight info
| Callsign | QFA607 |
|---|---|
| Flight time | 1h 8m |
| Altitude | 37000 |
| Route | DOSEL2/34 DOSEL Y59 RIVET |
| Aircraft | A20N/M-SDE2E3FGHIRWXY/LB1 |
Departure
| Time | 2026-04-30 09:15 |
|---|---|
| Airport | Melbourne Airport (YMML) |
Arrival
| Time | 2026-04-30 10:23 |
|---|---|
| Airport | Sydney Kingsford Smith International Airport (YSSY) |
| Time | Latitude | Longitude | Altitude | Speed | Heading |
|---|---|---|---|---|---|
| 2026-04-30 08:52 | -37.67131 | 144.84710 | 361 ft | 0 kts | 30° |
| 2026-04-30 09:06 | -37.67140 | 144.84704 | 363 ft | 4 kts | 28° |
| 2026-04-30 09:06 | -37.67164 | 144.84690 | 360 ft | 4 kts | 14° |
| 2026-04-30 09:07 | -37.67187 | 144.84688 | 361 ft | 4 kts | 311° |
| 2026-04-30 09:07 | -37.67191 | 144.84699 | 358 ft | 1 kts | 262° |
| 2026-04-30 09:07 | -37.67191 | 144.84701 | 358 ft | 0 kts | 262° |
| 2026-04-30 09:11 | -37.67191 | 144.84700 | 354 ft | 1 kts | 262° |
| 2026-04-30 09:11 | -37.67195 | 144.84666 | 362 ft | 8 kts | 262° |
| 2026-04-30 09:11 | -37.67205 | 144.84571 | 350 ft | 14 kts | 262° |
| 2026-04-30 09:11 | -37.67205 | 144.84425 | 366 ft | 19 kts | 284° |
| 2026-04-30 09:12 | -37.67243 | 144.84283 | 368 ft | 19 kts | 203° |
| 2026-04-30 09:12 | -37.67374 | 144.84301 | 365 ft | 21 kts | 171° |
| 2026-04-30 09:12 | -37.67516 | 144.84330 | 362 ft | 24 kts | 171° |
| 2026-04-30 09:12 | -37.67694 | 144.84367 | 362 ft | 28 kts | 169° |
| 2026-04-30 09:13 | -37.67848 | 144.84300 | 356 ft | 24 kts | 240° |
| 2026-04-30 09:13 | -37.67873 | 144.84122 | 358 ft | 0 kts | 261° |
| 2026-04-30 09:14 | -37.67875 | 144.84106 | 352 ft | 5 kts | 261° |
| 2026-04-30 09:14 | -37.67869 | 144.84025 | 357 ft | 14 kts | 291° |
| 2026-04-30 09:14 | -37.67775 | 144.83948 | 362 ft | 19 kts | 348° |
| 2026-04-30 09:14 | -37.67416 | 144.83880 | 368 ft | 91 kts | 352° |
| 2026-04-30 09:15 | -37.66560 | 144.83727 | 392 ft | 153 kts | 351° |
| 2026-04-30 09:15 | -37.65452 | 144.83538 | 1033 ft | 159 kts | 353° |
| 2026-04-30 09:15 | -37.64359 | 144.83323 | 1960 ft | 157 kts | 352° |
| 2026-04-30 09:15 | -37.63287 | 144.83089 | 2732 ft | 162 kts | 351° |
| 2026-04-30 09:16 | -37.62114 | 144.82846 | 3217 ft | 180 kts | 351° |
| 2026-04-30 09:16 | -37.60795 | 144.82591 | 3584 ft | 204 kts | 351° |
| 2026-04-30 09:16 | -37.59301 | 144.82539 | 4093 ft | 226 kts | 5° |
| 2026-04-30 09:16 | -37.57715 | 144.83068 | 4652 ft | 246 kts | 20° |
| 2026-04-30 09:17 | -37.56137 | 144.84030 | 4928 ft | 254 kts | 22° |
| 2026-04-30 09:17 | -37.54578 | 144.85001 | 4991 ft | 251 kts | 22° |
| 2026-04-30 09:17 | -37.53012 | 144.85968 | 4993 ft | 250 kts | 23° |
| 2026-04-30 09:17 | -37.51450 | 144.86930 | 4999 ft | 250 kts | 24° |
| 2026-04-30 09:18 | -37.49877 | 144.87907 | 5229 ft | 252 kts | 23° |
| 2026-04-30 09:18 | -37.48307 | 144.88875 | 5947 ft | 254 kts | 22° |
| 2026-04-30 09:18 | -37.46704 | 144.89856 | 6828 ft | 260 kts | 22° |
| 2026-04-30 09:18 | -37.45057 | 144.90868 | 7657 ft | 265 kts | 25° |
| 2026-04-30 09:19 | -37.43527 | 144.92229 | 8493 ft | 275 kts | 39° |
| 2026-04-30 09:19 | -37.42267 | 144.94104 | 9307 ft | 286 kts | 51° |
| 2026-04-30 09:19 | -37.41121 | 144.96178 | 10140 ft | 291 kts | 51° |
| 2026-04-30 09:19 | -37.39921 | 144.98324 | 10556 ft | 311 kts | 51° |
| 2026-04-30 09:20 | -37.38623 | 145.00622 | 10813 ft | 333 kts | 51° |
| 2026-04-30 09:20 | -37.37269 | 145.03011 | 11337 ft | 343 kts | 51° |
| 2026-04-30 09:20 | -37.35877 | 145.05469 | 12114 ft | 347 kts | 51° |
| 2026-04-30 09:20 | -37.34469 | 145.07957 | 12893 ft | 350 kts | 51° |
| 2026-04-30 09:21 | -37.33044 | 145.10473 | 13655 ft | 355 kts | 51° |
| 2026-04-30 09:21 | -37.31603 | 145.13013 | 14367 ft | 359 kts | 51° |
| 2026-04-30 09:21 | -37.30121 | 145.15621 | 14656 ft | 376 kts | 51° |
| 2026-04-30 09:21 | -37.28564 | 145.18358 | 14843 ft | 393 kts | 51° |
| 2026-04-30 09:22 | -37.26939 | 145.21214 | 15049 ft | 409 kts | 51° |
| 2026-04-30 09:22 | -37.25295 | 145.24108 | 15568 ft | 413 kts | 51° |
| 2026-04-30 09:22 | -37.23620 | 145.27059 | 16184 ft | 416 kts | 51° |
| 2026-04-30 09:22 | -37.21930 | 145.30031 | 16776 ft | 419 kts | 51° |
| 2026-04-30 09:23 | -37.20227 | 145.33020 | 17376 ft | 422 kts | 51° |
| 2026-04-30 09:23 | -37.18511 | 145.36028 | 17947 ft | 426 kts | 51° |
| 2026-04-30 09:23 | -37.16781 | 145.39057 | 18513 ft | 429 kts | 51° |
| 2026-04-30 09:23 | -37.15033 | 145.42112 | 19010 ft | 432 kts | 51° |
| 2026-04-30 09:24 | -37.13268 | 145.45189 | 19432 ft | 436 kts | 51° |
| 2026-04-30 09:24 | -37.11511 | 145.48255 | 19900 ft | 440 kts | 51° |
| 2026-04-30 09:24 | -37.09711 | 145.51390 | 20362 ft | 443 kts | 51° |
| 2026-04-30 09:24 | -37.07905 | 145.54536 | 20779 ft | 447 kts | 51° |
| 2026-04-30 09:25 | -37.06077 | 145.57714 | 21240 ft | 451 kts | 51° |
| 2026-04-30 09:25 | -37.04238 | 145.60907 | 21684 ft | 454 kts | 51° |
| 2026-04-30 09:25 | -37.02382 | 145.64129 | 22110 ft | 458 kts | 51° |
| 2026-04-30 09:25 | -37.00505 | 145.67383 | 22547 ft | 460 kts | 51° |
| 2026-04-30 09:26 | -36.98621 | 145.70649 | 22967 ft | 464 kts | 51° |
| 2026-04-30 09:26 | -36.96720 | 145.73938 | 23246 ft | 471 kts | 51° |
| 2026-04-30 09:26 | -36.94783 | 145.77285 | 23359 ft | 480 kts | 51° |
| 2026-04-30 09:26 | -36.92806 | 145.80699 | 23543 ft | 487 kts | 50° |
| 2026-04-30 09:27 | -36.90835 | 145.84102 | 23893 ft | 490 kts | 50° |
| 2026-04-30 09:27 | -36.88833 | 145.87555 | 24207 ft | 492 kts | 50° |
| 2026-04-30 09:27 | -36.86817 | 145.91028 | 24532 ft | 494 kts | 50° |
| 2026-04-30 09:27 | -36.84799 | 145.94502 | 24807 ft | 496 kts | 50° |
| 2026-04-30 09:28 | -36.82770 | 145.97989 | 25084 ft | 497 kts | 50° |
| 2026-04-30 09:28 | -36.80730 | 146.01492 | 25312 ft | 498 kts | 50° |
| 2026-04-30 09:28 | -36.78685 | 146.04999 | 25511 ft | 500 kts | 50° |
| 2026-04-30 09:28 | -36.76646 | 146.08493 | 25782 ft | 498 kts | 50° |
| 2026-04-30 09:29 | -36.74598 | 146.12003 | 25940 ft | 499 kts | 51° |
| 2026-04-30 09:29 | -36.72556 | 146.15506 | 26128 ft | 499 kts | 51° |
| 2026-04-30 09:29 | -36.70512 | 146.19007 | 26323 ft | 499 kts | 51° |
| 2026-04-30 09:29 | -36.68466 | 146.22500 | 26538 ft | 498 kts | 51° |
| 2026-04-30 09:30 | -36.66448 | 146.25941 | 26732 ft | 498 kts | 50° |
| 2026-04-30 09:30 | -36.64402 | 146.29420 | 26929 ft | 498 kts | 50° |
| 2026-04-30 09:30 | -36.62352 | 146.32900 | 27150 ft | 496 kts | 51° |
| 2026-04-30 09:30 | -36.60319 | 146.36352 | 27431 ft | 494 kts | 50° |
| 2026-04-30 09:31 | -36.58285 | 146.39803 | 27632 ft | 494 kts | 50° |
| 2026-04-30 09:31 | -36.56256 | 146.43243 | 27811 ft | 493 kts | 50° |
| 2026-04-30 09:31 | -36.54224 | 146.46684 | 28022 ft | 493 kts | 50° |
| 2026-04-30 09:31 | -36.52187 | 146.50132 | 28220 ft | 493 kts | 50° |
| 2026-04-30 09:32 | -36.50185 | 146.53517 | 28412 ft | 492 kts | 50° |
| 2026-04-30 09:32 | -36.48157 | 146.56941 | 28627 ft | 491 kts | 50° |
| 2026-04-30 09:32 | -36.46136 | 146.60349 | 28828 ft | 490 kts | 50° |
| 2026-04-30 09:32 | -36.44107 | 146.63768 | 29017 ft | 490 kts | 50° |
| 2026-04-30 09:33 | -36.42087 | 146.67168 | 29187 ft | 489 kts | 50° |
| 2026-04-30 09:33 | -36.40061 | 146.70576 | 29379 ft | 489 kts | 50° |
| 2026-04-30 09:33 | -36.38033 | 146.73982 | 29566 ft | 489 kts | 50° |
| 2026-04-30 09:33 | -36.36016 | 146.77367 | 29751 ft | 488 kts | 50° |
| 2026-04-30 09:34 | -36.34016 | 146.80721 | 29965 ft | 487 kts | 50° |
| 2026-04-30 09:34 | -36.31997 | 146.84103 | 30161 ft | 487 kts | 50° |
| 2026-04-30 09:34 | -36.29981 | 146.87476 | 30365 ft | 486 kts | 50° |
| 2026-04-30 09:34 | -36.27969 | 146.90839 | 30545 ft | 485 kts | 50° |
| 2026-04-30 09:35 | -36.25950 | 146.94211 | 30710 ft | 485 kts | 50° |
| 2026-04-30 09:35 | -36.23959 | 146.97533 | 30886 ft | 485 kts | 50° |
| 2026-04-30 09:35 | -36.21943 | 147.00894 | 31052 ft | 485 kts | 50° |
| 2026-04-30 09:35 | -36.19927 | 147.04251 | 31256 ft | 485 kts | 50° |
| 2026-04-30 09:36 | -36.17922 | 147.07590 | 31689 ft | 477 kts | 50° |
| 2026-04-30 09:36 | -36.15970 | 147.10831 | 32531 ft | 464 kts | 50° |
| 2026-04-30 09:36 | -36.14038 | 147.14017 | 33032 ft | 460 kts | 50° |
| 2026-04-30 09:36 | -36.12118 | 147.17185 | 33381 ft | 460 kts | 50° |
| 2026-04-30 09:37 | -36.10199 | 147.20353 | 33685 ft | 460 kts | 50° |
| 2026-04-30 09:37 | -36.08284 | 147.23519 | 33989 ft | 459 kts | 50° |
| 2026-04-30 09:37 | -36.06372 | 147.26680 | 34308 ft | 458 kts | 50° |
| 2026-04-30 09:37 | -36.04487 | 147.29797 | 34577 ft | 458 kts | 50° |
| 2026-04-30 09:38 | -36.02578 | 147.32951 | 34806 ft | 458 kts | 50° |
| 2026-04-30 09:38 | -36.00671 | 147.36101 | 35031 ft | 458 kts | 50° |
| 2026-04-30 09:38 | -35.98763 | 147.39249 | 35266 ft | 457 kts | 51° |
| 2026-04-30 09:38 | -35.96846 | 147.42409 | 35379 ft | 456 kts | 51° |
| 2026-04-30 09:39 | -35.93067 | 147.48627 | 35387 ft | 455 kts | 51° |
| 2026-04-30 09:39 | -35.89258 | 147.54883 | 35392 ft | 455 kts | 51° |
| 2026-04-30 09:40 | -35.85454 | 147.61119 | 35397 ft | 455 kts | 51° |
| 2026-04-30 09:40 | -35.81647 | 147.67350 | 35399 ft | 456 kts | 51° |
| 2026-04-30 09:41 | -35.77815 | 147.73608 | 35405 ft | 457 kts | 51° |
| 2026-04-30 09:41 | -35.74008 | 147.79815 | 35403 ft | 457 kts | 51° |
| 2026-04-30 09:42 | -35.70167 | 147.86068 | 35411 ft | 457 kts | 51° |
| 2026-04-30 09:42 | -35.66328 | 147.92304 | 35408 ft | 457 kts | 51° |
| 2026-04-30 09:43 | -35.62475 | 147.98551 | 35416 ft | 459 kts | 51° |
| 2026-04-30 09:43 | -35.58638 | 148.04762 | 35428 ft | 458 kts | 51° |
| 2026-04-30 09:44 | -35.54777 | 148.11016 | 35422 ft | 458 kts | 51° |
| 2026-04-30 09:44 | -35.50921 | 148.17243 | 35418 ft | 458 kts | 51° |
| 2026-04-30 09:45 | -35.47038 | 148.23492 | 35430 ft | 461 kts | 51° |
| 2026-04-30 09:45 | -35.43156 | 148.29730 | 35436 ft | 460 kts | 51° |
| 2026-04-30 09:46 | -35.39283 | 148.35935 | 35428 ft | 460 kts | 51° |
| 2026-04-30 09:46 | -35.35392 | 148.42162 | 35435 ft | 460 kts | 51° |
| 2026-04-30 09:47 | -35.31496 | 148.48390 | 35435 ft | 460 kts | 52° |
| 2026-04-30 09:47 | -35.29543 | 148.51504 | 35313 ft | 461 kts | 51° |
| 2026-04-30 09:47 | -35.27591 | 148.54611 | 35069 ft | 460 kts | 52° |
| 2026-04-30 09:48 | -35.25642 | 148.57714 | 34834 ft | 459 kts | 52° |
| 2026-04-30 09:48 | -35.23693 | 148.60811 | 34607 ft | 459 kts | 51° |
| 2026-04-30 09:48 | -35.21744 | 148.63905 | 34352 ft | 459 kts | 51° |
| 2026-04-30 09:48 | -35.19795 | 148.66997 | 34084 ft | 460 kts | 51° |
| 2026-04-30 09:49 | -35.17842 | 148.70096 | 33817 ft | 460 kts | 51° |
| 2026-04-30 09:49 | -35.15886 | 148.73199 | 33549 ft | 460 kts | 51° |
| 2026-04-30 09:49 | -35.13931 | 148.76295 | 33285 ft | 461 kts | 52° |
| 2026-04-30 09:49 | -35.11975 | 148.79396 | 33024 ft | 460 kts | 52° |
| 2026-04-30 09:50 | -35.10017 | 148.82497 | 32774 ft | 461 kts | 52° |
| 2026-04-30 09:50 | -35.08058 | 148.85595 | 32518 ft | 461 kts | 52° |
| 2026-04-30 09:50 | -35.06094 | 148.88695 | 32266 ft | 462 kts | 52° |
| 2026-04-30 09:50 | -35.04158 | 148.91757 | 32018 ft | 463 kts | 52° |
| 2026-04-30 09:51 | -35.02272 | 148.94744 | 31777 ft | 463 kts | 52° |
| 2026-04-30 09:51 | -35.00301 | 148.97860 | 31533 ft | 464 kts | 52° |
| 2026-04-30 09:51 | -34.98323 | 149.00977 | 31290 ft | 464 kts | 52° |
| 2026-04-30 09:51 | -34.96345 | 149.04088 | 31054 ft | 464 kts | 52° |
| 2026-04-30 09:52 | -34.95035 | 149.06144 | 30897 ft | 463 kts | 52° |
| 2026-04-30 09:52 | -34.93056 | 149.09250 | 30657 ft | 462 kts | 52° |
| 2026-04-30 09:52 | -34.91085 | 149.12330 | 30399 ft | 460 kts | 52° |
| 2026-04-30 09:52 | -34.89119 | 149.15400 | 30119 ft | 458 kts | 52° |
| 2026-04-30 09:53 | -34.87164 | 149.18453 | 29840 ft | 456 kts | 52° |
| 2026-04-30 09:53 | -34.85217 | 149.21496 | 29560 ft | 454 kts | 52° |
| 2026-04-30 09:53 | -34.83281 | 149.24520 | 29290 ft | 451 kts | 52° |
| 2026-04-30 09:53 | -34.81356 | 149.27527 | 29035 ft | 449 kts | 52° |
| 2026-04-30 09:54 | -34.79439 | 149.30518 | 28770 ft | 447 kts | 52° |
| 2026-04-30 09:54 | -34.77531 | 149.33492 | 28497 ft | 445 kts | 51° |
| 2026-04-30 09:54 | -34.75628 | 149.36456 | 28240 ft | 443 kts | 52° |
| 2026-04-30 09:54 | -34.73859 | 149.39448 | 27990 ft | 441 kts | 58° |
| 2026-04-30 09:55 | -34.72366 | 149.42697 | 27738 ft | 439 kts | 62° |
| 2026-04-30 09:55 | -34.70949 | 149.45979 | 27485 ft | 438 kts | 62° |
| 2026-04-30 09:55 | -34.69530 | 149.49249 | 27236 ft | 436 kts | 62° |
| 2026-04-30 09:55 | -34.68117 | 149.52494 | 26987 ft | 434 kts | 62° |
| 2026-04-30 09:56 | -34.66709 | 149.55721 | 26738 ft | 432 kts | 62° |
| 2026-04-30 09:56 | -34.65302 | 149.58940 | 26495 ft | 430 kts | 62° |
| 2026-04-30 09:56 | -34.63902 | 149.62138 | 26263 ft | 429 kts | 62° |
| 2026-04-30 09:56 | -34.62499 | 149.65340 | 26028 ft | 427 kts | 62° |
| 2026-04-30 09:57 | -34.61105 | 149.68520 | 25781 ft | 425 kts | 62° |
| 2026-04-30 09:57 | -34.59734 | 149.71645 | 25552 ft | 423 kts | 62° |
| 2026-04-30 09:57 | -34.58340 | 149.74821 | 25443 ft | 421 kts | 62° |
| 2026-04-30 09:57 | -34.56956 | 149.77969 | 25438 ft | 422 kts | 62° |
| 2026-04-30 09:58 | -34.55590 | 149.81073 | 25438 ft | 423 kts | 62° |
| 2026-04-30 09:58 | -34.54204 | 149.84222 | 25446 ft | 423 kts | 62° |
| 2026-04-30 09:58 | -34.52813 | 149.87378 | 25446 ft | 422 kts | 62° |
| 2026-04-30 09:58 | -34.51425 | 149.90524 | 25446 ft | 422 kts | 62° |
| 2026-04-30 09:59 | -34.48664 | 149.96773 | 25449 ft | 422 kts | 62° |
| 2026-04-30 09:59 | -34.45894 | 150.03032 | 25449 ft | 422 kts | 62° |
| 2026-04-30 10:00 | -34.43110 | 150.09309 | 25451 ft | 422 kts | 62° |
| 2026-04-30 10:00 | -34.41721 | 150.12437 | 25452 ft | 422 kts | 62° |
| 2026-04-30 10:01 | -34.38936 | 150.18700 | 25454 ft | 421 kts | 62° |
| 2026-04-30 10:01 | -34.37545 | 150.21823 | 25453 ft | 421 kts | 62° |
| 2026-04-30 10:01 | -34.36154 | 150.24946 | 25452 ft | 421 kts | 62° |
| 2026-04-30 10:02 | -34.33379 | 150.31161 | 25452 ft | 421 kts | 62° |
| 2026-04-30 10:02 | -34.31984 | 150.34278 | 25448 ft | 421 kts | 62° |
| 2026-04-30 10:02 | -34.30595 | 150.37397 | 25249 ft | 419 kts | 62° |
| 2026-04-30 10:02 | -34.29210 | 150.40507 | 24682 ft | 421 kts | 62° |
| 2026-04-30 10:03 | -34.27823 | 150.43614 | 23810 ft | 427 kts | 62° |
| 2026-04-30 10:03 | -34.26387 | 150.46831 | 22892 ft | 430 kts | 62° |
| 2026-04-30 10:03 | -34.24988 | 150.49961 | 22240 ft | 426 kts | 62° |
| 2026-04-30 10:03 | -34.23583 | 150.53104 | 21590 ft | 422 kts | 62° |
| 2026-04-30 10:04 | -34.22199 | 150.56194 | 20945 ft | 417 kts | 62° |
| 2026-04-30 10:04 | -34.20819 | 150.59272 | 20345 ft | 413 kts | 62° |
| 2026-04-30 10:04 | -34.19453 | 150.62316 | 19726 ft | 410 kts | 62° |
| 2026-04-30 10:04 | -34.18100 | 150.65327 | 19120 ft | 406 kts | 62° |
| 2026-04-30 10:05 | -34.16755 | 150.68317 | 18501 ft | 403 kts | 62° |
| 2026-04-30 10:05 | -34.15424 | 150.71268 | 17845 ft | 399 kts | 61° |
| 2026-04-30 10:05 | -34.14107 | 150.74168 | 17530 ft | 387 kts | 61° |
| 2026-04-30 10:05 | -34.12840 | 150.76964 | 17378 ft | 371 kts | 61° |
| 2026-04-30 10:06 | -34.11643 | 150.79613 | 17226 ft | 357 kts | 61° |
| 2026-04-30 10:06 | -34.10481 | 150.82190 | 17083 ft | 343 kts | 61° |
| 2026-04-30 10:06 | -34.09358 | 150.84682 | 16970 ft | 330 kts | 61° |
| 2026-04-30 10:06 | -34.08282 | 150.87077 | 16770 ft | 320 kts | 61° |
| 2026-04-30 10:07 | -34.07227 | 150.89425 | 16428 ft | 316 kts | 61° |
| 2026-04-30 10:07 | -34.06175 | 150.91764 | 15986 ft | 316 kts | 61° |
| 2026-04-30 10:07 | -34.05134 | 150.94074 | 15593 ft | 313 kts | 61° |
| 2026-04-30 10:07 | -34.04091 | 150.96391 | 15171 ft | 313 kts | 62° |
| 2026-04-30 10:08 | -34.03418 | 150.98865 | 14752 ft | 312 kts | 84° |
| 2026-04-30 10:08 | -34.03608 | 151.01426 | 14332 ft | 312 kts | 107° |
| 2026-04-30 10:08 | -34.04657 | 151.03673 | 14101 ft | 305 kts | 131° |
| 2026-04-30 10:08 | -34.06096 | 151.05483 | 13992 ft | 292 kts | 134° |
| 2026-04-30 10:09 | -34.07585 | 151.07074 | 13882 ft | 281 kts | 146° |
| 2026-04-30 10:09 | -34.09324 | 151.08083 | 13608 ft | 276 kts | 163° |
| 2026-04-30 10:09 | -34.11203 | 151.08582 | 13225 ft | 275 kts | 168° |
| 2026-04-30 10:09 | -34.13068 | 151.09038 | 12892 ft | 272 kts | 167° |
| 2026-04-30 10:10 | -34.14921 | 151.09507 | 12517 ft | 272 kts | 167° |
| 2026-04-30 10:10 | -34.16749 | 151.09975 | 12152 ft | 271 kts | 166° |
| 2026-04-30 10:10 | -34.18581 | 151.10452 | 11850 ft | 267 kts | 166° |
| 2026-04-30 10:10 | -34.20404 | 151.10927 | 11459 ft | 268 kts | 166° |
| 2026-04-30 10:11 | -34.22228 | 151.11407 | 11123 ft | 267 kts | 166° |
| 2026-04-30 10:11 | -34.24037 | 151.11886 | 10833 ft | 264 kts | 166° |
| 2026-04-30 10:11 | -34.25834 | 151.12353 | 10466 ft | 264 kts | 165° |
| 2026-04-30 10:11 | -34.27632 | 151.12821 | 10124 ft | 262 kts | 165° |
| 2026-04-30 10:12 | -34.29410 | 151.13287 | 9793 ft | 260 kts | 166° |
| 2026-04-30 10:12 | -34.31152 | 151.13744 | 9454 ft | 258 kts | 165° |
| 2026-04-30 10:12 | -34.32911 | 151.14204 | 9110 ft | 257 kts | 166° |
| 2026-04-30 10:12 | -34.34650 | 151.14662 | 8793 ft | 254 kts | 166° |
| 2026-04-30 10:13 | -34.36386 | 151.15117 | 8419 ft | 255 kts | 165° |
| 2026-04-30 10:13 | -34.38119 | 151.15570 | 8087 ft | 254 kts | 165° |
| 2026-04-30 10:13 | -34.39840 | 151.16025 | 7798 ft | 251 kts | 166° |
| 2026-04-30 10:13 | -34.41526 | 151.16508 | 7495 ft | 248 kts | 157° |
| 2026-04-30 10:14 | -34.42921 | 151.17649 | 7161 ft | 241 kts | 125° |
| 2026-04-30 10:14 | -34.43669 | 151.19580 | 6847 ft | 267 kts | 97° |
| 2026-04-30 10:14 | -34.42653 | 151.23677 | 6158 ft | 265 kts | 44° |
| 2026-04-30 10:15 | -34.41108 | 151.24817 | 6027 ft | 259 kts | 24° |
| 2026-04-30 10:15 | -34.39431 | 151.25645 | 5985 ft | 261 kts | 23° |
| 2026-04-30 10:15 | -34.37744 | 151.26467 | 5820 ft | 261 kts | 23° |
| 2026-04-30 10:15 | -34.36022 | 151.27153 | 5494 ft | 262 kts | 8° |
| 2026-04-30 10:16 | -34.34212 | 151.27251 | 5146 ft | 261 kts | 3° |
| 2026-04-30 10:16 | -34.32405 | 151.27307 | 4830 ft | 258 kts | 3° |
| 2026-04-30 10:16 | -34.30609 | 151.27362 | 4390 ft | 259 kts | 3° |
| 2026-04-30 10:17 | -34.27061 | 151.27424 | 3722 ft | 254 kts | 357° |
| 2026-04-30 10:17 | -34.23645 | 151.26363 | 3084 ft | 251 kts | 344° |
| 2026-04-30 10:17 | -34.21975 | 151.25703 | 2999 ft | 255 kts | 345° |
| 2026-04-30 10:18 | -34.20271 | 151.25081 | 2995 ft | 254 kts | 346° |
| 2026-04-30 10:18 | -34.18574 | 151.24507 | 2996 ft | 252 kts | 347° |
| 2026-04-30 10:18 | -34.16888 | 151.23965 | 2998 ft | 254 kts | 347° |
| 2026-04-30 10:19 | -34.13459 | 151.22836 | 2729 ft | 257 kts | 346° |
| 2026-04-30 10:19 | -34.11821 | 151.22197 | 2753 ft | 238 kts | 345° |
| 2026-04-30 10:19 | -34.10293 | 151.21579 | 2600 ft | 226 kts | 344° |
| 2026-04-30 10:19 | -34.08851 | 151.20996 | 2560 ft | 210 kts | 347° |
| 2026-04-30 10:20 | -34.07425 | 151.20611 | 2160 ft | 211 kts | 352° |
| 2026-04-30 10:20 | -34.04892 | 151.20070 | 2053 ft | 156 kts | 354° |
| 2026-04-30 10:20 | -34.03866 | 151.19883 | 1868 ft | 143 kts | 352° |
| 2026-04-30 10:21 | -34.02896 | 151.19654 | 1531 ft | 138 kts | 351° |
| 2026-04-30 10:21 | -34.01968 | 151.19402 | 1253 ft | 142 kts | 348° |
| 2026-04-30 10:21 | -34.01023 | 151.19139 | 951 ft | 134 kts | 349° |
| 2026-04-30 10:21 | -34.00131 | 151.18840 | 942 ft | 139 kts | 349° |
| 2026-04-30 10:22 | -33.99184 | 151.18678 | 866 ft | 137 kts | 352° |
| 2026-04-30 10:22 | -33.98230 | 151.18467 | 536 ft | 139 kts | 349° |
| 2026-04-30 10:22 | -33.97311 | 151.18220 | 332 ft | 134 kts | 349° |
| 2026-04-30 10:22 | -33.96389 | 151.18055 | 99 ft | 138 kts | 345° |
| 2026-04-30 10:23 | -33.95503 | 151.17834 | 22 ft | 114 kts | 347° |
| 2026-04-30 10:23 | -33.94926 | 151.17680 | 22 ft | 60 kts | 346° |
| 2026-04-30 10:23 | -33.94571 | 151.17564 | 27 ft | 42 kts | 335° |
| 2026-04-30 10:23 | -33.94355 | 151.17384 | 29 ft | 19 kts | 317° |
| 2026-04-30 10:24 | -33.94345 | 151.17372 | 27 ft | 0 kts | 317° |
| 2026-04-30 10:25 | -33.94344 | 151.17372 | 27 ft | 1 kts | 316° |
| 2026-04-30 10:25 | -33.94332 | 151.17326 | 28 ft | 12 kts | 264° |
| 2026-04-30 10:25 | -33.94360 | 151.17186 | 26 ft | 22 kts | 252° |
| 2026-04-30 10:25 | -33.94408 | 151.16996 | 23 ft | 23 kts | 258° |
| 2026-04-30 10:26 | -33.94315 | 151.16887 | 24 ft | 20 kts | 349° |
| 2026-04-30 10:26 | -33.94180 | 151.16850 | 22 ft | 21 kts | 346° |
| 2026-04-30 10:26 | -33.94134 | 151.16836 | 22 ft | 0 kts | 346° |
| 2026-04-30 10:27 | -33.94115 | 151.16831 | 23 ft | 8 kts | 349° |
| 2026-04-30 10:27 | -33.94049 | 151.16897 | 21 ft | 18 kts | 77° |
| 2026-04-30 10:27 | -33.93998 | 151.17073 | 20 ft | 25 kts | 40° |
| 2026-04-30 10:27 | -33.93850 | 151.17068 | 23 ft | 13 kts | 324° |
| 2026-04-30 10:28 | -33.93857 | 151.16983 | 22 ft | 12 kts | 253° |
| 2026-04-30 10:28 | -33.93862 | 151.16960 | 21 ft | 0 kts | 255° |